Time;durP1;ratioP1;P1;durP2;ratioP2;P2;SDS_P1;SDS_P2;PMS_P1;PMS_P2;Temp;Humidity;BMP_temperature;BMP_pressure;BME280_temperature;BME280_humidity;BME280_pressure;Samples;Min_cycle;Max_cycle;Signal;HPM_P1;HPM_P2
2023/10/01 00:00:30;;;;;;;6.18;3.10;;;18.10;76.40;;;;;;5066542;28;20060;-70
2023/10/01 00:02:59;;;;;;;3.17;2.55;;;18.00;76.40;;;;;;5068829;28;20475;-70
2023/10/01 00:05:25;;;;;;;5.65;3.55;;;18.00;76.40;;;;;;5067383;28;20028;-70
2023/10/01 00:07:52;;;;;;;4.72;2.03;;;17.90;76.30;;;;;;5051389;28;20028;-70
2023/10/01 00:10:20;;;;;;;3.78;2.30;;;17.90;76.30;;;;;;5068902;28;20049;-70
2023/10/01 00:12:47;;;;;;;4.28;2.50;;;17.90;76.40;;;;;;5066607;28;20033;-70
2023/10/01 00:15:17;;;;;;;4.65;2.60;;;17.90;76.50;;;;;;5064334;28;20395;-70
2023/10/01 00:17:44;;;;;;;3.25;2.35;;;17.90;76.70;;;;;;5067951;28;20047;-69
2023/10/01 00:20:22;;;;;;;5.78;2.50;;;17.80;76.50;;;;;;5067276;28;20109;-70
2023/10/01 00:22:56;;;;;;;4.63;2.47;;;17.80;76.50;;;;;;5066416;28;21534;-70
2023/10/01 00:25:23;;;;;;;3.03;2.30;;;17.70;76.50;;;;;;5066999;28;20093;-70
2023/10/01 00:27:50;;;;;;;7.72;2.78;;;17.70;76.50;;;;;;5049375;28;20039;-70
2023/10/01 00:30:16;;;;;;;3.78;2.55;;;17.70;76.50;;;;;;5065830;28;20454;-70
2023/10/01 00:32:42;;;;;;;2.05;1.80;;;17.70;76.50;;;;;;5066857;28;20480;-64
2023/10/01 00:35:11;;;;;;;3.90;2.65;;;17.70;76.50;;;;;;5068302;28;20029;-64
2023/10/01 00:37:37;;;;;;;3.80;2.30;;;17.60;76.50;;;;;;5068148;28;20706;-64
2023/10/01 00:40:06;;;;;;;4.97;1.98;;;17.60;76.60;;;;;;5067812;28;20122;-64
2023/10/01 00:42:36;;;;;;;2.60;2.30;;;17.60;76.70;;;;;;5046106;28;20020;-64
2023/10/01 00:45:03;;;;;;;4.53;2.25;;;17.60;76.80;;;;;;5067009;28;20063;-70
2023/10/01 00:47:31;;;;;;;3.85;2.28;;;17.60;76.80;;;;;;5068889;28;20029;-70
2023/10/01 00:49:58;;;;;;;5.07;2.20;;;17.60;76.80;;;;;;5068533;28;20494;-70
2023/10/01 00:52:24;;;;;;;3.60;2.00;;;17.60;76.90;;;;;;5067362;28;20029;-70
2023/10/01 00:54:54;;;;;;;6.35;2.47;;;17.60;76.90;;;;;;5066768;28;20077;-64
2023/10/01 00:57:21;;;;;;;6.25;2.45;;;17.60;76.90;;;;;;5057055;28;20021;-64
2023/10/01 00:59:48;;;;;;;3.67;2.25;;;17.60;76.90;;;;;;5066003;28;20024;-64
2023/10/01 01:02:17;;;;;;;4.63;2.90;;;17.50;76.80;;;;;;5061808;28;20028;-70
2023/10/01 01:04:48;;;;;;;2.90;2.15;;;17.50;76.90;;;;;;5067026;28;20111;-69
2023/10/01 01:07:16;;;;;;;3.20;2.10;;;17.50;76.80;;;;;;5068378;28;20123;-64
2023/10/01 01:09:43;;;;;;;5.68;2.58;;;17.50;76.80;;;;;;5068379;28;20028;-64
2023/10/01 01:12:09;;;;;;;5.38;3.10;;;17.40;76.60;;;;;;5061384;28;20025;-64
2023/10/01 01:14:36;;;;;;;3.75;2.55;;;17.40;76.60;;;;;;5065233;28;20103;-64
2023/10/01 01:17:03;;;;;;;2.85;1.92;;;17.30;76.50;;;;;;5068206;28;20024;-64
2023/10/01 01:19:30;;;;;;;2.80;1.88;;;17.30;76.50;;;;;;5066174;28;20639;-70
2023/10/01 01:21:56;;;;;;;6.20;2.33;;;17.30;76.40;;;;;;5068100;28;20536;-64
2023/10/01 01:24:24;;;;;;;3.83;2.10;;;17.20;76.40;;;;;;5063917;28;20029;-64
2023/10/01 01:26:51;;;;;;;4.35;2.17;;;17.20;76.40;;;;;;5065218;28;20048;-70
2023/10/01 01:29:29;;;;;;;4.07;2.53;;;17.20;76.40;;;;;;5061298;28;20420;-69
2023/10/01 01:32:13;;;;;;;4.60;2.15;;;17.20;76.30;;;;;;5063440;28;20020;-70
2023/10/01 01:34:40;;;;;;;3.83;2.05;;;17.10;76.30;;;;;;5066061;28;20493;-70
2023/10/01 01:37:07;;;;;;;5.25;2.45;;;17.10;76.30;;;;;;5064426;28;20035;-70
2023/10/01 01:39:54;;;;;;;3.92;2.30;;;17.10;76.30;;;;;;5061841;28;20029;-70
2023/10/01 01:42:21;;;;;;;3.60;1.95;;;17.10;76.20;;;;;;5041443;28;20275;-69
2023/10/01 01:45:15;;;;;;;3.78;2.38;;;17.10;76.20;;;;;;5058852;28;20508;-69
2023/10/01 01:47:39;;;;;;;5.13;2.92;;;17.10;76.20;;;;;;5059812;28;20036;-64
2023/10/01 01:50:26;;;;;;;3.13;2.40;;;17.10;76.20;;;;;;5066876;28;20052;-70
2023/10/01 01:52:56;;;;;;;3.45;2.40;;;17.10;76.20;;;;;;5066881;28;20024;-64
2023/10/01 01:55:23;;;;;;;5.88;3.13;;;17.10;76.20;;;;;;5070004;28;20032;-69
2023/10/01 02:00:39;;;;;;;4.18;2.58;;;17.00;76.30;;;;;;5065947;28;20083;-70
2023/10/01 02:03:10;;;;;;;4.00;1.90;;;17.00;76.30;;;;;;5071036;28;20035;-64
2023/10/01 02:05:41;;;;;;;2.58;2.25;;;17.00;76.30;;;;;;5070484;28;20517;-64
2023/10/01 02:08:11;;;;;;;6.00;2.22;;;17.00;76.30;;;;;;5069603;28;20467;-65
2023/10/01 02:10:46;;;;;;;4.43;2.40;;;17.00;76.30;;;;;;5070682;28;20024;-70
2023/10/01 02:13:17;;;;;;;4.13;2.63;;;17.00;76.30;;;;;;5070258;28;20040;-64
2023/10/01 02:15:45;;;;;;;5.53;2.20;;;17.00;76.30;;;;;;5069867;28;20032;-64
2023/10/01 02:18:13;;;;;;;4.45;2.70;;;17.00;76.30;;;;;;5070327;28;20032;-70
2023/10/01 02:20:40;;;;;;;5.43;2.15;;;17.00;76.30;;;;;;5067070;28;20029;-70
2023/10/01 02:23:12;;;;;;;10.52;2.47;;;17.00;76.30;;;;;;5071277;28;20391;-70
2023/10/01 02:25:46;;;;;;;;;;;17.00;76.30;;;;;;5069971;28;20037;-70
2023/10/01 02:28:15;;;;;;;3.42;2.08;;;17.00;76.40;;;;;;5051831;28;20271;-70
2023/10/01 02:30:44;;;;;;;3.63;2.53;;;17.00;76.50;;;;;;5050070;28;20028;-69
2023/10/01 02:33:17;;;;;;;4.07;2.50;;;17.00;76.50;;;;;;5070742;28;20036;-70
2023/10/01 02:35:48;;;;;;;3.80;1.92;;;17.00;76.40;;;;;;5068082;28;20494;-70
2023/10/01 02:41:02;;;;;;;4.55;2.05;;;17.10;76.60;;;;;;5068392;28;20513;-64
2023/10/01 02:43:34;;;;;;;2.05;1.80;;;17.10;76.60;;;;;;5066569;28;20068;-64
2023/10/01 02:46:04;;;;;;;3.33;1.65;;;17.10;76.50;;;;;;5070497;28;20162;-64
2023/10/01 02:48:30;;;;;;;4.97;2.72;;;17.10;76.50;;;;;;5065608;28;20032;-64
2023/10/01 02:50:56;;;;;;;5.22;2.50;;;17.10;76.50;;;;;;5052010;28;20028;-64
2023/10/01 02:53:23;;;;;;;3.22;2.05;;;17.20;77.10;;;;;;5059521;28;20058;-64
2023/10/01 02:55:51;;;;;;;3.45;2.53;;;17.20;76.50;;;;;;5061291;28;20060;-65
2023/10/01 02:58:20;;;;;;;3.03;1.77;;;17.20;76.50;;;;;;5068221;28;20431;-69
2023/10/01 03:00:46;;;;;;;3.13;2.05;;;17.20;76.50;;;;;;5064812;28;20036;-64
2023/10/01 03:03:17;;;;;;;3.22;1.98;;;17.20;76.50;;;;;;5063489;28;20037;-64
2023/10/01 03:05:44;;;;;;;2.63;2.33;;;17.20;76.40;;;;;;5064967;28;20028;-69
2023/10/01 03:11:02;;;;;;;2.05;1.50;;;17.20;76.40;;;;;;5037295;28;20044;-70
2023/10/01 03:13:30;;;;;;;2.45;1.88;;;17.20;76.20;;;;;;5066220;28;20041;-70
2023/10/01 03:18:46;;;;;;;5.90;2.70;;;17.20;75.70;;;;;;5064326;28;20039;-70
2023/10/01 03:22:08;;;;;;;1.92;1.63;;;17.20;75.20;;;;;;5063682;28;20056;-70
2023/10/01 03:24:03;;;;;;;2.38;1.80;;;17.20;75.30;;;;;;5067310;28;20033;-70
2023/10/01 03:26:33;;;;;;;3.97;1.60;;;17.20;75.20;;;;;;5066352;28;20032;-70
2023/10/01 03:29:15;;;;;;;3.25;1.83;;;17.20;75.10;;;;;;5068612;28;20467;-69
2023/10/01 03:31:46;;;;;;;2.38;1.63;;;17.30;74.60;;;;;;5067437;28;20024;-70
2023/10/01 03:34:28;;;;;;;5.15;1.85;;;17.30;74.50;;;;;;5068871;28;20056;-70
2023/10/01 03:37:00;;;;;;;5.07;1.88;;;17.30;74.50;;;;;;5067357;28;20037;-69
2023/10/01 03:39:26;;;;;;;7.28;1.45;;;17.30;74.60;;;;;;5069153;28;20513;-64
2023/10/01 03:41:54;;;;;;;3.10;1.58;;;17.30;74.70;;;;;;5066885;28;20040;-64
2023/10/01 03:47:08;;;;;;;3.78;2.10;;;17.30;74.80;;;;;;5069105;28;20052;-69
2023/10/01 03:49:37;;;;;;;3.40;2.00;;;17.30;74.70;;;;;;5067637;28;20028;-69
2023/10/01 03:52:04;;;;;;;2.35;1.58;;;17.30;74.70;;;;;;5061218;28;20119;-64
2023/10/01 03:57:17;;;;;;;3.28;1.90;;;17.40;74.80;;;;;;5054609;28;20362;-70
2023/10/01 03:59:53;;;;;;;4.22;1.70;;;17.30;74.80;;;;;;5065411;28;20028;-70
2023/10/01 04:07:53;;;;;;;4.63;1.75;;;17.30;74.80;;;;;;5065015;28;20042;-64
2023/10/01 04:10:34;;;;;;;3.17;1.80;;;17.30;74.70;;;;;;5065700;28;20075;-64
2023/10/01 04:13:11;;;;;;;1.75;1.20;;;17.30;74.40;;;;;;5066700;28;20021;-64
2023/10/01 04:15:41;;;;;;;1.98;1.67;;;17.40;74.40;;;;;;5068170;28;20041;-64
2023/10/01 04:21:17;;;;;;;2.97;1.90;;;17.40;75.10;;;;;;5067410;28;20055;-64
2023/10/01 04:23:40;;;;;;;2.65;1.30;;;17.30;74.40;;;;;;5066781;28;20036;-64
2023/10/01 04:26:13;;;;;;;2.77;1.53;;;17.30;74.50;;;;;;5047754;28;20185;-64
2023/10/01 04:28:47;;;;;;;2.15;1.30;;;17.40;74.60;;;;;;5067375;28;20734;-64
2023/10/01 04:31:22;;;;;;;1.75;1.15;;;17.40;74.60;;;;;;5068645;28;20028;-64
2023/10/01 04:33:50;;;;;;;3.67;1.40;;;17.40;74.60;;;;;;5066275;28;20028;-64
2023/10/01 04:36:19;;;;;;;3.00;1.50;;;17.40;74.40;;;;;;5065084;28;20029;-64
2023/10/01 04:38:48;;;;;;;5.78;1.98;;;17.40;74.30;;;;;;5066761;28;20029;-64
2023/10/01 04:41:16;;;;;;;3.83;1.63;;;17.40;73.90;;;;;;5068138;28;20043;-65
2023/10/01 04:43:52;;;;;;;3.67;1.58;;;17.40;73.90;;;;;;5065667;28;20559;-64
2023/10/01 04:46:24;;;;;;;3.03;1.63;;;17.40;73.80;;;;;;5063807;28;20036;-64
2023/10/01 04:48:51;;;;;;;3.05;1.38;;;17.40;73.80;;;;;;5068099;28;20082;-64
2023/10/01 04:51:17;;;;;;;2.65;1.52;;;17.40;73.80;;;;;;5066494;28;20044;-64
2023/10/01 04:53:46;;;;;;;3.38;1.90;;;17.40;73.70;;;;;;5067644;28;20036;-69
2023/10/01 04:56:20;;;;;;;3.08;1.63;;;17.40;73.60;;;;;;5065924;28;20427;-70
2023/10/01 04:58:51;;;;;;;3.65;1.65;;;17.40;73.10;;;;;;5066228;28;20067;-70
2023/10/01 05:01:18;;;;;;;3.55;1.80;;;17.40;73.20;;;;;;5044983;28;20029;-70
2023/10/01 05:03:44;;;;;;;3.63;1.48;;;17.40;73.40;;;;;;5067754;28;20024;-71
2023/10/01 05:06:15;;;;;;;4.72;1.63;;;17.30;73.50;;;;;;5050508;28;20518;-70
2023/10/01 05:08:42;;;;;;;3.33;1.50;;;17.40;73.60;;;;;;5065139;28;20029;-70
2023/10/01 05:11:10;;;;;;;3.45;1.75;;;17.40;73.30;;;;;;5066197;28;20107;-70
2023/10/01 05:13:47;;;;;;;1.98;1.40;;;17.40;73.30;;;;;;5058320;28;20025;-70
2023/10/01 05:16:14;;;;;;;4.88;2.20;;;17.40;73.30;;;;;;5061869;28;20060;-65
2023/10/01 05:18:43;;;;;;;2.55;1.70;;;17.40;73.30;;;;;;5060305;28;20051;-71
2023/10/01 05:21:18;;;;;;;5.72;2.03;;;17.40;73.30;;;;;;5058715;28;20155;-70
2023/10/01 05:23:48;;;;;;;4.10;1.95;;;17.40;73.20;;;;;;5059187;28;20400;-71
2023/10/01 05:26:20;;;;;;;3.88;1.40;;;17.40;73.30;;;;;;5060788;28;20032;-70
2023/10/01 05:28:48;;;;;;;3.08;1.90;;;17.40;73.40;;;;;;5059616;28;20083;-70
2023/10/01 05:31:24;;;;;;;2.92;1.65;;;17.50;73.50;;;;;;5064627;28;20024;-70
2023/10/01 05:33:51;;;;;;;1.80;1.45;;;17.50;73.50;;;;;;5060102;28;20029;-70
2023/10/01 05:36:18;;;;;;;5.50;1.92;;;17.50;73.60;;;;;;5064395;28;20035;-70
2023/10/01 05:38:45;;;;;;;2.97;1.63;;;17.50;73.70;;;;;;5067104;28;20085;-64
2023/10/01 05:41:15;;;;;;;4.85;1.63;;;17.50;73.80;;;;;;5066843;28;20040;-64
2023/10/01 05:43:50;;;;;;;3.25;1.30;;;17.50;73.80;;;;;;5038222;28;20586;-64
2023/10/01 05:46:17;;;;;;;2.80;1.42;;;17.50;73.80;;;;;;5058578;28;20033;-65
2023/10/01 05:48:44;;;;;;;1.50;1.33;;;17.50;73.80;;;;;;5059528;28;20537;-64
2023/10/01 05:51:15;;;;;;;5.60;1.70;;;17.50;73.80;;;;;;5065052;28;20094;-64
2023/10/01 05:53:48;;;;;;;4.90;1.88;;;17.50;73.90;;;;;;5064638;28;20032;-65
2023/10/01 05:56:20;;;;;;;4.68;1.90;;;17.50;74.00;;;;;;5064000;28;20077;-69
2023/10/01 05:58:47;;;;;;;5.43;2.08;;;17.40;74.00;;;;;;5066453;28;20033;-71
2023/10/01 06:01:16;;;;;;;3.28;1.20;;;17.50;74.10;;;;;;5064698;28;20652;-64
2023/10/01 06:03:49;;;;;;;4.60;1.35;;;17.50;74.10;;;;;;5060786;28;20020;-64
2023/10/01 06:06:24;;;;;;;3.40;1.35;;;17.50;74.00;;;;;;5060827;28;20043;-64
2023/10/01 06:08:50;;;;;;;2.65;1.63;;;17.50;74.00;;;;;;5066373;28;20151;-70
2023/10/01 06:11:38;;;;;;;3.63;1.80;;;17.50;74.00;;;;;;5064600;28;20024;-71
2023/10/01 06:14:07;;;;;;;1.85;1.75;;;17.60;74.20;;;;;;5045409;28;20472;-70
2023/10/01 06:16:37;;;;;;;3.58;1.92;;;17.50;74.20;;;;;;5049115;28;20133;-64
2023/10/01 06:19:07;;;;;;;2.45;1.40;;;17.50;74.20;;;;;;5065412;28;20025;-64
2023/10/01 06:21:33;;;;;;;12.75;2.42;;;17.50;74.20;;;;;;5060064;28;20502;-64
2023/10/01 06:24:04;;;;;;;2.58;1.65;;;17.50;74.30;;;;;;5066957;28;20059;-64
2023/10/01 06:26:37;;;;;;;3.30;1.33;;;17.50;74.20;;;;;;5063586;28;20041;-70
2023/10/01 06:29:11;;;;;;;3.30;1.70;;;17.60;74.10;;;;;;5064435;28;20029;-70
2023/10/01 06:34:16;;;;;;;3.25;2.05;;;17.70;73.90;;;;;;5061605;28;20052;-70
2023/10/01 06:36:42;;;;;;;6.65;1.65;;;17.70;73.90;;;;;;5049252;28;20131;-70
2023/10/01 06:39:19;;;;;;;5.18;1.60;;;17.70;73.90;;;;;;5067580;28;20020;-64
2023/10/01 06:41:45;;;;;;;3.22;1.77;;;17.80;73.90;;;;;;5050406;28;20364;-64
2023/10/01 06:44:14;;;;;;;2.92;1.80;;;17.80;73.90;;;;;;5070843;28;20041;-65
2023/10/01 06:46:40;;;;;;;3.00;1.55;;;17.80;74.00;;;;;;5052435;28;20073;-64
2023/10/01 06:49:08;;;;;;;2.97;1.63;;;17.90;74.00;;;;;;5067134;28;20024;-65
2023/10/01 06:51:43;;;;;;;5.55;2.10;;;17.90;74.00;;;;;;5051786;28;20425;-64
2023/10/01 06:54:10;;;;;;;2.78;1.77;;;17.90;73.90;;;;;;5066763;28;20569;-65
2023/10/01 06:56:38;;;;;;;8.13;2.60;;;17.90;73.90;;;;;;5066874;28;20032;-64
2023/10/01 07:01:47;;;;;;;5.07;2.25;;;18.00;73.70;;;;;;5061991;28;20128;-72
2023/10/01 07:04:23;;;;;;;7.13;2.33;;;18.00;73.40;;;;;;5057517;28;20032;-72
2023/10/01 07:06:53;;;;;;;3.72;1.90;;;18.00;73.40;;;;;;5062569;28;20098;-72
2023/10/01 07:09:32;;;;;;;4.45;2.05;;;18.00;73.40;;;;;;5064719;28;20033;-71
2023/10/01 07:11:59;;;;;;;5.53;1.77;;;18.10;73.20;;;;;;5063384;28;20033;-69
2023/10/01 07:14:44;;;;;;;6.18;2.22;;;18.10;73.10;;;;;;5063926;28;20030;-64
2023/10/01 07:17:15;;;;;;;5.75;1.90;;;18.10;73.10;;;;;;5067421;28;20509;-66
2023/10/01 07:19:45;;;;;;;4.13;2.57;;;18.10;73.00;;;;;;5067550;28;20523;-63
2023/10/01 07:22:14;;;;;;;4.10;2.17;;;18.10;73.10;;;;;;5066698;28;20029;-71
2023/10/01 07:24:40;;;;;;;5.82;2.50;;;18.10;73.00;;;;;;5050727;28;20036;-64
2023/10/01 07:27:07;;;;;;;5.75;2.10;;;18.20;73.00;;;;;;5040571;28;20059;-64
2023/10/01 07:29:34;;;;;;;4.82;2.53;;;18.20;73.00;;;;;;5066606;28;20021;-63
2023/10/01 07:32:07;;;;;;;4.22;2.22;;;18.20;72.70;;;;;;5066037;28;20051;-62
2023/10/01 07:34:39;;;;;;;3.50;2.15;;;18.30;72.70;;;;;;5066157;28;20482;-63
2023/10/01 07:37:08;;;;;;;4.90;2.35;;;18.20;72.50;;;;;;5039511;28;20043;-69
2023/10/01 07:39:40;;;;;;;2.67;1.70;;;18.20;72.20;;;;;;5064179;28;20021;-70
2023/10/01 07:42:10;;;;;;;6.63;2.53;;;18.30;72.40;;;;;;5060043;28;20028;-70
2023/10/01 07:44:36;;;;;;;12.65;3.03;;;18.30;72.20;;;;;;5047346;28;20406;-70
2023/10/01 07:47:03;;;;;;;3.10;2.08;;;18.30;72.10;;;;;;5062451;28;20040;-69
2023/10/01 07:49:46;;;;;;;4.03;2.35;;;18.40;71.90;;;;;;5060811;28;20562;-69
2023/10/01 07:52:19;;;;;;;4.88;2.22;;;18.40;71.80;;;;;;5049840;28;20029;-69
2023/10/01 07:54:47;;;;;;;6.03;2.40;;;18.40;71.80;;;;;;5064644;28;20970;-70
2023/10/01 07:57:15;;;;;;;3.58;1.98;;;18.40;71.90;;;;;;5058681;28;20036;-63
2023/10/01 07:59:43;;;;;;;8.13;2.75;;;18.50;71.70;;;;;;5066938;28;20467;-64
2023/10/01 08:02:19;;;;;;;5.72;2.75;;;18.50;71.70;;;;;;5068215;28;20480;-64
2023/10/01 08:04:59;;;;;;;5.85;2.50;;;18.50;71.40;;;;;;5051416;28;20150;-63
2023/10/01 08:07:47;;;;;;;4.10;2.13;;;18.50;71.70;;;;;;5058240;28;20385;-63
2023/10/01 08:10:17;;;;;;;7.20;2.40;;;18.60;71.70;;;;;;5045679;28;20392;-63
2023/10/01 08:15:15;;;;;;;;;;;18.70;71.20;;;;;;5062523;28;20040;-63
2023/10/01 08:17:43;;;;;;;5.22;2.88;;;18.70;71.40;;;;;;5065876;28;19908;-70
2023/10/01 08:20:21;;;;;;;6.47;3.58;;;18.80;71.60;;;;;;5068026;28;20470;-70
2023/10/01 08:25:42;;;;;;;5.68;2.60;;;18.90;71.20;;;;;;5067761;28;20035;-64
2023/10/01 08:28:26;;;;;;;7.25;2.55;;;19.00;71.10;;;;;;5063495;28;20037;-64
2023/10/01 08:31:43;;;;;;;6.03;2.80;;;19.10;71.10;;;;;;5062694;28;20040;-64
2023/10/01 08:33:51;;;;;;;8.15;2.88;;;19.10;70.90;;;;;;5069294;28;20063;-64
2023/10/01 08:36:24;;;;;;;6.38;3.38;;;19.20;70.90;;;;;;5065003;28;20045;-64
2023/10/01 08:39:20;;;;;;;5.40;2.58;;;19.30;70.70;;;;;;5064511;28;20050;-64
2023/10/01 08:41:50;;;;;;;6.55;3.67;;;19.30;70.90;;;;;;5065710;28;20086;-64
2023/10/01 08:44:22;;;;;;;6.78;2.53;;;19.50;70.80;;;;;;5064187;28;20482;-64
2023/10/01 08:46:48;;;;;;;;;;;19.50;70.50;;;;;;5063575;28;20115;-64
2023/10/01 08:49:24;;;;;;;6.72;3.15;;;19.60;70.40;;;;;;5049578;28;20414;-70
2023/10/01 08:51:53;;;;;;;5.47;2.35;;;19.60;70.20;;;;;;5064592;28;20389;-70
2023/10/01 08:54:24;;;;;;;7.22;3.03;;;19.80;70.30;;;;;;5051135;28;20090;-70
2023/10/01 08:56:52;;;;;;;6.68;3.17;;;19.90;69.80;;;;;;5062003;28;20041;-70
2023/10/01 08:59:25;;;;;;;5.10;2.83;;;19.90;69.80;;;;;;5065742;28;20029;-70
2023/10/01 09:01:55;;;;;;;5.70;2.85;;;20.10;69.80;;;;;;5063152;28;20112;-70
2023/10/01 09:07:10;;;;;;;6.82;2.55;;;20.40;69.30;;;;;;5066638;28;20464;-64
2023/10/01 09:09:51;;;;;;;6.15;3.88;;;20.60;68.90;;;;;;5064693;28;20048;-64
2023/10/01 09:12:18;;;;;;;7.22;3.50;;;20.70;68.50;;;;;;5047103;28;20028;-64
2023/10/01 09:14:46;;;;;;;5.68;2.55;;;20.80;68.50;;;;;;5066024;28;20067;-64
2023/10/01 09:17:26;;;;;;;6.25;2.85;;;20.90;68.20;;;;;;5061293;28;20025;-64
2023/10/01 09:19:52;;;;;;;5.00;2.20;;;21.00;68.30;;;;;;5068042;28;20095;-64
2023/10/01 09:22:40;;;;;;;4.72;2.35;;;21.10;68.30;;;;;;5062727;28;20024;-64
2023/10/01 09:25:25;;;;;;;7.10;2.55;;;21.30;68.00;;;;;;5049547;28;20029;-64
2023/10/01 09:27:59;;;;;;;8.60;2.45;;;21.50;67.50;;;;;;5060037;28;20021;-65
2023/10/01 09:30:26;;;;;;;6.45;2.65;;;21.70;67.40;;;;;;5034286;28;20446;-64
2023/10/01 09:33:05;;;;;;;10.88;3.00;;;21.80;67.10;;;;;;5046467;28;20028;-65
2023/10/01 09:36:33;;;;;;;7.55;2.67;;;21.90;66.60;;;;;;5067923;28;20025;-70
2023/10/01 09:39:03;;;;;;;8.05;2.80;;;22.00;66.00;;;;;;5064353;28;20517;-70
2023/10/01 09:41:36;;;;;;;4.72;2.17;;;22.10;66.40;;;;;;5056021;28;20456;-70
2023/10/01 09:44:03;;;;;;;4.47;2.95;;;22.30;66.30;;;;;;5067234;28;20075;-70
2023/10/01 09:46:34;;;;;;;8.48;2.80;;;22.50;65.90;;;;;;5058149;28;20068;-70
2023/10/01 09:49:02;;;;;;;6.10;2.53;;;22.50;65.00;;;;;;5064133;28;20074;-70
2023/10/01 09:51:31;;;;;;;6.10;3.03;;;22.60;65.10;;;;;;5063348;28;20044;-70
2023/10/01 09:54:02;;;;;;;4.47;2.90;;;22.70;64.80;;;;;;5060452;28;20487;-70
2023/10/01 09:56:30;;;;;;;8.53;3.40;;;22.70;64.20;;;;;;5063013;28;20032;-64
2023/10/01 09:59:08;;;;;;;6.38;2.38;;;22.70;64.00;;;;;;5060020;28;20052;-64
2023/10/01 10:01:36;;;;;;;4.43;2.75;;;22.80;64.20;;;;;;5064581;28;20477;-64
2023/10/01 10:04:07;;;;;;;6.57;3.03;;;22.80;64.10;;;;;;5063817;28;20012;-64
2023/10/01 10:06:33;;;;;;;5.88;2.47;;;22.90;63.90;;;;;;5067617;28;20454;-64
2023/10/01 10:09:04;;;;;;;8.95;3.85;;;23.10;63.30;;;;;;5058242;28;20468;-65
2023/10/01 10:11:31;;;;;;;4.87;2.27;;;23.30;63.10;;;;;;5057021;28;20529;-64
2023/10/01 10:14:00;;;;;;;5.47;2.78;;;23.30;62.90;;;;;;5065874;28;20271;-64
2023/10/01 10:16:32;;;;;;;5.25;2.90;;;23.40;62.40;;;;;;5071525;28;20036;-64
2023/10/01 10:19:23;;;;;;;;;;;23.50;62.30;;;;;;5071026;28;20031;-64
2023/10/01 10:22:50;;;;;;;7.55;3.30;;;23.60;61.80;;;;;;5067452;28;19912;-70
2023/10/01 10:24:47;;;;;;;8.63;3.28;;;23.80;61.70;;;;;;5056502;28;20028;-70
2023/10/01 10:27:28;;;;;;;5.68;2.75;;;23.90;61.00;;;;;;5066820;28;20048;-70
2023/10/01 10:29:57;;;;;;;8.30;2.37;;;24.00;61.90;;;;;;5065971;28;20040;-70
2023/10/01 10:32:51;;;;;;;4.65;2.30;;;24.10;61.20;;;;;;5064503;28;20271;-70
2023/10/01 10:35:17;;;;;;;4.32;1.83;;;24.20;60.70;;;;;;5051310;28;20044;-64
2023/10/01 10:37:45;;;;;;;3.65;1.95;;;24.30;60.80;;;;;;5063563;28;20028;-64
2023/10/01 10:42:47;;;;;;;4.22;2.85;;;24.80;60.00;;;;;;5071234;28;20028;-69
2023/10/01 10:45:24;;;;;;;4.03;2.50;;;24.90;58.90;;;;;;5063945;28;20372;-64
2023/10/01 10:47:59;;;;;;;6.25;2.85;;;24.90;58.60;;;;;;5053696;28;20440;-64
2023/10/01 10:50:50;;;;;;;3.28;1.70;;;25.00;58.60;;;;;;5050244;28;20397;-70
2023/10/01 10:53:24;;;;;;;8.48;2.47;;;24.90;59.00;;;;;;5059182;28;20029;-70
2023/10/01 10:56:05;;;;;;;5.82;2.80;;;24.80;60.10;;;;;;5069102;28;20025;-70
2023/10/01 10:58:41;;;;;;;7.38;2.55;;;24.70;59.50;;;;;;5065769;28;20031;-70
2023/10/01 11:01:22;;;;;;;5.03;2.25;;;24.60;60.00;;;;;;5064935;28;20027;-70
2023/10/01 11:03:50;;;;;;;3.25;1.90;;;24.50;59.70;;;;;;5067916;28;20522;-70
2023/10/01 11:06:18;;;;;;;3.03;1.77;;;24.50;60.20;;;;;;5068431;28;20119;-70
2023/10/01 11:08:52;;;;;;;7.35;3.15;;;24.70;60.50;;;;;;5067597;28;20430;-70
2023/10/01 11:11:39;;;;;;;3.83;2.00;;;25.00;59.70;;;;;;5069798;28;20028;-70
2023/10/01 11:14:11;;;;;;;5.82;2.30;;;25.10;59.20;;;;;;5065881;28;20024;-70
2023/10/01 11:16:40;;;;;;;8.20;2.95;;;25.20;59.20;;;;;;5065057;28;20502;-70
2023/10/01 11:19:13;;;;;;;11.07;2.80;;;25.30;58.10;;;;;;5067774;28;20477;-70
2023/10/01 11:22:00;;;;;;;8.18;3.05;;;25.30;58.50;;;;;;5050433;28;20036;-70
2023/10/01 11:24:40;;;;;;;3.78;2.30;;;25.30;58.40;;;;;;5067573;28;20035;-70
2023/10/01 11:30:13;;;;;;;10.35;4.05;;;25.60;58.20;;;;;;5065368;28;20063;-70
2023/10/01 11:35:40;;;;;;;6.53;2.47;;;25.80;58.00;;;;;;5065798;28;20043;-64
2023/10/01 11:38:21;;;;;;;6.03;1.90;;;25.90;57.30;;;;;;5063593;28;20029;-65
2023/10/01 11:41:07;;;;;;;4.90;1.53;;;26.00;58.20;;;;;;5063698;28;20308;-65
2023/10/01 11:43:38;;;;;;;9.68;2.78;;;26.20;57.90;;;;;;5060991;28;20278;-64
2023/10/01 11:46:25;;;;;;;4.15;2.45;;;26.30;56.80;;;;;;5070250;28;20024;-64
2023/10/01 11:48:56;;;;;;;3.67;2.13;;;26.40;57.00;;;;;;5067948;28;20032;-65
2023/10/01 11:51:54;;;;;;;6.03;2.30;;;26.50;56.70;;;;;;5046123;28;20075;-66
2023/10/01 11:54:43;;;;;;;5.40;2.60;;;26.60;56.80;;;;;;5062963;28;20043;-65
2023/10/01 11:57:22;;;;;;;5.75;1.75;;;26.80;56.90;;;;;;5051358;28;20446;-65
2023/10/01 11:59:55;;;;;;;3.72;1.98;;;26.90;56.40;;;;;;5061862;28;20024;-65
2023/10/01 12:02:43;;;;;;;5.35;2.17;;;27.00;56.00;;;;;;5066155;28;20024;-66
2023/10/01 12:05:13;;;;;;;4.40;2.45;;;27.00;55.30;;;;;;5062707;28;20029;-66
2023/10/01 12:07:45;;;;;;;3.60;2.05;;;27.00;56.20;;;;;;5060847;28;20028;-66
2023/10/01 12:10:35;;;;;;;3.75;1.30;;;26.90;55.70;;;;;;5055516;28;20039;-65
2023/10/01 12:13:01;;;;;;;3.97;1.30;;;26.90;55.70;;;;;;5054673;28;20039;-66
2023/10/01 12:18:14;;;;;;;4.93;2.42;;;27.10;55.50;;;;;;5057047;28;20186;-65
2023/10/01 12:20:50;;;;;;;4.90;3.03;;;27.20;55.10;;;;;;5057144;28;20036;-66
2023/10/01 12:23:19;;;;;;;5.43;2.00;;;27.10;54.80;;;;;;5062275;28;20500;-65
2023/10/01 12:25:53;;;;;;;7.18;2.20;;;27.00;55.50;;;;;;5062928;28;20536;-65
2023/10/01 12:28:27;;;;;;;3.70;2.55;;;27.00;56.00;;;;;;5061347;28;20027;-65
2023/10/01 12:30:57;;;;;;;3.80;1.55;;;26.90;56.50;;;;;;5060558;28;20494;-65
2023/10/01 12:33:46;;;;;;;5.30;1.92;;;26.60;56.40;;;;;;5059987;28;20029;-65
2023/10/01 12:36:32;;;;;;;6.93;2.03;;;26.40;57.00;;;;;;5061881;28;20037;-65
2023/10/01 12:41:47;;;;;;;6.72;1.77;;;26.60;57.20;;;;;;5065311;28;20169;-63
2023/10/01 12:44:27;;;;;;;6.78;2.53;;;26.70;57.40;;;;;;5064457;28;20094;-63
2023/10/01 12:47:07;;;;;;;3.00;1.77;;;26.90;56.70;;;;;;5067551;28;20024;-65
2023/10/01 12:49:34;;;;;;;3.13;1.95;;;26.80;56.20;;;;;;5061364;28;20127;-65
2023/10/01 12:52:05;;;;;;;5.75;2.33;;;26.70;57.00;;;;;;5030078;28;20039;-65
2023/10/01 12:54:36;;;;;;;;;;;26.70;57.20;;;;;;5069533;28;20021;-65
2023/10/01 12:57:02;;;;;;;7.13;2.35;;;26.80;57.20;;;;;;5067940;28;19985;-65
2023/10/01 12:59:39;;;;;;;14.00;2.33;;;26.70;56.90;;;;;;5067396;28;20056;-71
2023/10/01 13:02:22;;;;;;;6.85;2.60;;;26.60;56.80;;;;;;5060926;28;20036;-71
2023/10/01 13:04:50;;;;;;;3.03;1.52;;;26.60;57.00;;;;;;5050612;28;20127;-71
2023/10/01 13:07:27;;;;;;;3.63;2.00;;;26.70;57.20;;;;;;5063849;28;20067;-71
2023/10/01 13:09:54;;;;;;;4.03;1.80;;;26.80;56.40;;;;;;5048222;28;20031;-71
2023/10/01 13:12:25;;;;;;;3.70;1.42;;;26.80;56.20;;;;;;5066263;28;20103;-71
2023/10/01 13:17:43;;;;;;;3.80;1.98;;;26.60;56.70;;;;;;5067616;28;20039;-71
2023/10/01 13:20:19;;;;;;;4.20;1.75;;;26.50;57.30;;;;;;5067504;28;20034;-71
2023/10/01 13:22:51;;;;;;;7.43;2.88;;;26.50;57.50;;;;;;5062318;28;20584;-68
2023/10/01 13:25:23;;;;;;;;;;;26.60;57.90;;;;;;5065331;28;20033;-71
2023/10/01 13:28:01;;;;;;;8.45;2.85;;;26.70;57.90;;;;;;5068101;28;19908;-70
2023/10/01 13:33:23;;;;;;;3.45;1.63;;;27.10;57.50;;;;;;5053315;28;20047;-70
2023/10/01 13:35:58;;;;;;;6.30;2.38;;;27.40;56.70;;;;;;5063157;28;20062;-70
2023/10/01 14:11:06;;;;;;;5.53;2.35;;;28.90;52.80;;;;;;5068764;28;20051;-70
2023/10/01 14:13:35;;;;;;;3.88;2.25;;;29.50;52.20;;;;;;5053427;28;20033;-70
2023/10/01 14:16:17;;;;;;;4.45;1.85;;;30.30;50.80;;;;;;5071368;28;20021;-70
2023/10/01 14:18:57;;;;;;;5.97;2.22;;;31.00;50.70;;;;;;5061157;28;20013;-64
2023/10/01 14:21:29;;;;;;;4.20;2.10;;;32.30;49.60;;;;;;5068761;28;20124;-65
2023/10/01 14:26:43;;;;;;;6.63;2.15;;;35.10;44.80;;;;;;5061686;28;20163;-70
2023/10/01 14:29:10;;;;;;;8.02;2.47;;;35.70;42.70;;;;;;5050237;28;20699;-70
2023/10/01 14:31:41;;;;;;;4.03;1.85;;;35.80;41.60;;;;;;5061032;28;20039;-64
2023/10/01 14:34:08;;;;;;;5.22;2.65;;;35.70;41.90;;;;;;5048698;28;20032;-64
2023/10/01 14:36:39;;;;;;;4.07;2.15;;;35.20;41.50;;;;;;5062716;28;20049;-64
2023/10/01 14:39:06;;;;;;;3.42;2.08;;;34.30;41.90;;;;;;5059827;28;20106;-64
2023/10/01 14:41:37;;;;;;;3.85;1.80;;;33.30;43.00;;;;;;5061508;28;20477;-65
2023/10/01 14:44:04;;;;;;;5.80;2.35;;;32.30;44.10;;;;;;5065461;28;20045;-64
2023/10/01 14:46:30;;;;;;;5.57;2.15;;;31.40;45.60;;;;;;5066748;28;20033;-64